Pagrindinis puslapis
METAR-TAF:

METAR-TAF

Oro uostai :

Liubekas, Vokietija

platuma: 53-49N, ilguma: 010-42E, Aukštis: 14 m

Dabartinis oras

Ataskaita buvo paskelbta 15 minutes, ne 09:20 UTC
Vėjas 7 kt iš Vakarų, svyruoja nuo Pietvakarių ir Vakarų/Šiaurės Vakarų
Temperatūra 14°C
Drėgmė 72%
Slėgis 1028 hPa
Matomumas 10 km arba daugiau
Su prošvaistėmis ne aukštis 2500 ft

METAR: EDHL 200920Z 26007KT 230V300 9999 BKN025 14/09 Q1028

Laikas: 11:35 (09:35 UTC)

Prognozė

Ataskaita buvo paskelbta 1 valandą ir 35 minutes, ne 08:00 UTC
Prognozė galioja nuo 20 metu 09 UTC su 20 metu 18 UTC
Vėjas 7 kt iš Vakarų
Matomumas 10 km arba daugiau
Su prošvaistėmis ne aukštis 2500 ft
Laikinai
nuo 20 metu 10 UTC su 20 metu 18 UTC
Matomumas: 4000 m
Su prošvaistėmis ne aukštis 1200 ft
dulksna, lietus
Tikimybė 30% :
Laikinai
nuo 20 metu 12 UTC su 20 metu 18 UTC
Su prošvaistėmis ne aukštis 800 ft

TAF: EDHL 200800Z 2009/2018 26007KT 9999 BKN025 TEMPO 2010/2018 4000 -DZRA BKN012 PROB30 TEMPO 2012/2018 BKN008

Orai ataskaitas ir orų prognozės (METAR, TAF).

turimą stotys yra geltonos ir raudonos taškus žemėlapyje.

Perkelti pele per norėdami pamatyti stoties vardą.

Tada spustelėkite, norėdami matyti oro stebėjimo ir prognozės.

Norėdami pakeisti žemėlapį: spustelėkite ant žalios mygtukų su juodo kryžiaus žemyn,; žalią mygtuką su brūkšneliu, jei norite nutolinti; arba žalių rodyklių gretimoms žemėlapius.


METAR-TAF: